Time;durP1;ratioP1;P1;durP2;ratioP2;P2;SDS_P1;SDS_P2;PMS_P1;PMS_P2;Temp;Humidity;BMP_temperature;BMP_pressure;BME280_temperature;BME280_humidity;BME280_pressure;Samples;Min_cycle;Max_cycle;Signal;HPM_P1;HPM_P2
2022/05/14 00:00:12;;;;;;;14.52;6.78;;;;;;;;;;4929152;28;20058;-66
2022/05/14 00:02:43;;;;;;;15.10;7.00;;;;;;;;;;4953275;28;20059;-67
2022/05/14 00:05:13;;;;;;;12.07;6.50;;;;;;;;;;4969079;28;20062;-67
2022/05/14 00:07:45;;;;;;;10.88;5.40;;;;;;;;;;5014530;28;20060;-67
2022/05/14 00:10:16;;;;;;;11.55;5.90;;;;;;;;;;5011026;28;20495;-67
2022/05/14 00:13:05;;;;;;;13.05;6.07;;;;;;;;;;5011797;28;20057;-67
2022/05/14 00:15:43;;;;;;;12.13;6.25;;;;;;;;;;5011758;28;20057;-67
2022/05/14 00:18:14;;;;;;;11.63;5.95;;;;;;;;;;4975844;28;20065;-67
2022/05/14 00:20:44;;;;;;;11.80;5.60;;;;;;;;;;5010376;28;20083;-66
2022/05/14 00:23:15;;;;;;;14.30;6.15;;;;;;;;;;4972423;28;20415;-66
2022/05/14 00:25:45;;;;;;;10.32;5.55;;;;;;;;;;4972355;28;20054;-67
2022/05/14 00:28:16;;;;;;;11.25;5.70;;;;;;;;;;4972532;28;20499;-67
2022/05/14 00:30:47;;;;;;;14.77;6.28;;;;;;;;;;4971769;28;20623;-67
2022/05/14 00:33:18;;;;;;;12.05;6.45;;;;;;;;;;4972188;28;20515;-66
2022/05/14 00:35:48;;;;;;;14.50;6.93;;;;;;;;;;4955901;28;20077;-66
2022/05/14 00:38:19;;;;;;;12.85;6.80;;;;;;;;;;4943485;28;20559;-66
2022/05/14 00:40:58;;;;;;;13.85;5.75;;;;;;;;;;4952965;29;20059;-66
2022/05/14 00:43:34;;;;;;;14.02;5.75;;;;;;;;;;4952747;29;20059;-66
2022/05/14 00:46:26;;;;;;;16.35;6.45;;;;;;;;;;4952908;29;20083;-66
2022/05/14 00:49:00;;;;;;;13.27;6.55;;;;;;;;;;4925331;28;20051;-66
2022/05/14 00:51:36;;;;;;;13.57;6.68;;;;;;;;;;4971974;28;20495;-66
2022/05/14 00:54:31;;;;;;;12.77;6.03;;;;;;;;;;4971320;28;20058;-66
2022/05/14 00:57:32;;;;;;;11.68;5.97;;;;;;;;;;4952779;28;20043;-66
2022/05/14 01:00:48;;;;;;;12.95;5.80;;;;;;;;;;4963658;28;20077;-67
2022/05/14 01:03:47;;;;;;;12.77;6.20;;;;;;;;;;4932588;29;20385;-66
2022/05/14 01:06:26;;;;;;;;;;;;;;;;;;4914397;29;20161;-66
2022/05/14 01:09:21;;;;;;;11.75;5.38;;;;;;;;;;4855565;29;19923;-66
2022/05/14 01:11:56;;;;;;;14.05;6.22;;;;;;;;;;4839751;29;20164;-66
2022/05/14 01:31:54;;;;;;;12.20;6.63;;;;;;;;;;4740346;30;20065;-66
2022/05/14 01:34:32;;;;;;;13.07;6.22;;;;;;;;;;4758085;30;20056;-66
2022/05/14 01:37:04;;;;;;;12.38;5.93;;;;;;;;;;4767301;30;20094;-66
2022/05/14 01:39:36;;;;;;;;;;;;;;;;;;4841429;29;20523;-66
2022/05/14 01:42:08;;;;;;;17.85;6.25;;;;;;;;;;4907832;29;19939;-66
2022/05/14 01:45:03;;;;;;;11.88;5.97;;;;;;;;;;4926696;29;20044;-66
2022/05/14 01:47:36;;;;;;;13.70;5.68;;;;;;;;;;4913054;29;20056;-66
2022/05/14 01:50:09;;;;;;;13.25;6.03;;;;;;;;;;4927690;29;20554;-66
2022/05/14 01:52:40;;;;;;;13.32;6.50;;;;;;;;;;4946433;29;20082;-66
2022/05/14 01:55:10;;;;;;;12.07;6.72;;;;;;;;;;4934991;29;20063;-66
2022/05/14 01:57:41;;;;;;;12.02;6.30;;;;;;;;;;4932092;29;20074;-66
2022/05/14 02:00:16;;;;;;;12.18;6.18;;;;;;;;;;4947742;29;20544;-66
2022/05/14 02:02:51;;;;;;;11.43;6.07;;;;;;;;;;4950593;29;20059;-66
2022/05/14 02:05:22;;;;;;;11.68;6.60;;;;;;;;;;4966963;28;20047;-66
2022/05/14 02:07:59;;;;;;;15.88;6.97;;;;;;;;;;4935911;29;20519;-66
2022/05/14 02:10:31;;;;;;;12.40;5.95;;;;;;;;;;4934933;28;20055;-66
2022/05/14 02:13:02;;;;;;;14.20;5.75;;;;;;;;;;4929079;29;20055;-66
2022/05/14 02:15:33;;;;;;;13.70;6.55;;;;;;;;;;4931999;29;20056;-66
2022/05/14 02:18:05;;;;;;;13.95;6.05;;;;;;;;;;4931201;29;20052;-66
2022/05/14 02:20:36;;;;;;;14.35;6.05;;;;;;;;;;4931612;29;20067;-66
2022/05/14 02:23:08;;;;;;;12.57;6.47;;;;;;;;;;4909010;29;20067;-66
2022/05/14 02:25:39;;;;;;;11.85;5.93;;;;;;;;;;4875430;29;20503;-66
2022/05/14 02:28:10;;;;;;;12.88;6.50;;;;;;;;;;4871426;29;20069;-66
2022/05/14 02:30:41;;;;;;;12.13;6.13;;;;;;;;;;4856438;29;20423;-66
2022/05/14 02:33:13;;;;;;;14.68;6.78;;;;;;;;;;4856184;29;20146;-66
2022/05/14 02:35:43;;;;;;;15.02;6.10;;;;;;;;;;4856578;29;20062;-66
2022/05/14 02:38:15;;;;;;;18.60;6.65;;;;;;;;;;4840812;29;20077;-66
2022/05/14 02:40:46;;;;;;;11.63;5.63;;;;;;;;;;4863468;29;20637;-66
2022/05/14 02:43:17;;;;;;;13.88;6.50;;;;;;;;;;4840650;29;20612;-67
2022/05/14 02:45:48;;;;;;;12.63;5.50;;;;;;;;;;4852780;29;20054;-66
2022/05/14 02:48:19;;;;;;;11.82;5.70;;;;;;;;;;4837742;29;20065;-66
2022/05/14 02:50:50;;;;;;;12.52;6.07;;;;;;;;;;4867325;29;20055;-66
2022/05/14 02:53:22;;;;;;;12.93;6.00;;;;;;;;;;4883620;29;20066;-66
2022/05/14 02:55:53;;;;;;;12.57;6.22;;;;;;;;;;4953429;28;20066;-66
2022/05/14 03:01:14;;;;;;;14.73;5.78;;;;;;;;;;4969579;28;20058;-66
2022/05/14 03:03:45;;;;;;;11.10;5.72;;;;;;;;;;4969707;28;20058;-66
2022/05/14 03:06:15;;;;;;;12.75;6.20;;;;;;;;;;4956852;28;20063;-66
2022/05/14 03:08:46;;;;;;;11.43;5.70;;;;;;;;;;4950373;28;20059;-66
2022/05/14 03:11:17;;;;;;;14.38;6.55;;;;;;;;;;4966203;28;20048;-66
2022/05/14 03:13:48;;;;;;;12.10;5.90;;;;;;;;;;4969415;28;20051;-66
2022/05/14 03:16:21;;;;;;;14.20;6.68;;;;;;;;;;4940144;28;20055;-66
2022/05/14 03:18:51;;;;;;;15.45;7.55;;;;;;;;;;4899176;29;20065;-66
2022/05/14 03:21:22;;;;;;;15.60;6.03;;;;;;;;;;4893292;29;20420;-66
2022/05/14 03:23:53;;;;;;;12.80;5.55;;;;;;;;;;4924707;29;20062;-66
2022/05/14 03:26:24;;;;;;;15.70;6.22;;;;;;;;;;4969444;28;20051;-66
2022/05/14 03:28:54;;;;;;;14.18;6.45;;;;;;;;;;4995403;28;20058;-66
2022/05/14 03:31:26;;;;;;;16.55;6.72;;;;;;;;;;4981796;28;20050;-66
2022/05/14 03:33:57;;;;;;;12.55;6.05;;;;;;;;;;4988870;28;20054;-66
2022/05/14 03:36:28;;;;;;;13.52;6.50;;;;;;;;;;4988941;28;20092;-66
2022/05/14 03:38:58;;;;;;;15.35;7.70;;;;;;;;;;4988639;28;20050;-66
2022/05/14 03:41:30;;;;;;;12.38;6.95;;;;;;;;;;4984966;28;20442;-66
2022/05/14 03:44:02;;;;;;;12.35;6.00;;;;;;;;;;4931910;29;20059;-66
2022/05/14 03:46:34;;;;;;;13.43;6.03;;;;;;;;;;4934422;29;20055;-66
2022/05/14 03:49:06;;;;;;;13.40;6.32;;;;;;;;;;4934150;29;20039;-66
2022/05/14 03:51:37;;;;;;;12.65;6.28;;;;;;;;;;4934338;29;20055;-66
2022/05/14 03:54:09;;;;;;;16.77;6.47;;;;;;;;;;4885497;29;20053;-66
2022/05/14 03:56:40;;;;;;;16.42;6.55;;;;;;;;;;4877530;29;20061;-66
2022/05/14 03:59:12;;;;;;;17.25;7.22;;;;;;;;;;4877732;29;20057;-66
2022/05/14 04:01:43;;;;;;;14.02;6.43;;;;;;;;;;4891536;29;20053;-66
2022/05/14 04:04:14;;;;;;;15.88;7.30;;;;;;;;;;4900576;29;20049;-66
2022/05/14 04:06:45;;;;;;;19.05;7.10;;;;;;;;;;4896118;29;20052;-66
2022/05/14 04:09:16;;;;;;;16.92;7.25;;;;;;;;;;4906573;29;20064;-66
2022/05/14 04:11:48;;;;;;;14.57;7.40;;;;;;;;;;4930833;29;20079;-66
2022/05/14 04:14:19;;;;;;;15.82;6.75;;;;;;;;;;4933525;29;20054;-66
2022/05/14 04:16:50;;;;;;;17.77;6.45;;;;;;;;;;4899095;29;20056;-66
2022/05/14 04:19:21;;;;;;;14.88;6.95;;;;;;;;;;4908179;29;20057;-66
2022/05/14 04:21:53;;;;;;;16.48;7.40;;;;;;;;;;4877542;29;20556;-66
2022/05/14 04:24:24;;;;;;;13.30;6.38;;;;;;;;;;4877302;29;20064;-66
2022/05/14 04:26:55;;;;;;;13.55;6.53;;;;;;;;;;4895714;29;20056;-66
2022/05/14 04:29:25;;;;;;;18.27;6.88;;;;;;;;;;4895642;29;20057;-66
2022/05/14 04:31:56;;;;;;;13.02;6.22;;;;;;;;;;4888091;29;20049;-66
2022/05/14 04:34:28;;;;;;;15.45;6.18;;;;;;;;;;4874879;29;20064;-66
2022/05/14 04:36:58;;;;;;;13.40;6.53;;;;;;;;;;4914912;29;20060;-66
2022/05/14 04:39:32;;;;;;;16.13;6.85;;;;;;;;;;4919781;29;20057;-66
2022/05/14 04:42:06;;;;;;;14.82;6.25;;;;;;;;;;4895773;29;20568;-66
2022/05/14 04:44:38;;;;;;;14.30;7.00;;;;;;;;;;4909217;29;20055;-66
2022/05/14 04:47:11;;;;;;;13.40;6.88;;;;;;;;;;4952293;29;20095;-66
2022/05/14 04:49:47;;;;;;;15.45;6.43;;;;;;;;;;4967450;28;20047;-66
2022/05/14 04:52:20;;;;;;;14.88;6.82;;;;;;;;;;4952625;29;20055;-66
2022/05/14 04:54:51;;;;;;;15.88;7.60;;;;;;;;;;4940146;28;20054;-66
2022/05/14 04:57:22;;;;;;;15.30;6.82;;;;;;;;;;4933474;29;20060;-66
2022/05/14 04:59:53;;;;;;;15.43;6.82;;;;;;;;;;4948465;29;20059;-66
2022/05/14 05:05:14;;;;;;;13.13;6.50;;;;;;;;;;4941274;28;20542;-66
2022/05/14 05:07:46;;;;;;;13.70;6.38;;;;;;;;;;4920103;28;20050;-66
2022/05/14 05:10:17;;;;;;;15.25;6.70;;;;;;;;;;4971308;28;20630;-66
2022/05/14 05:12:48;;;;;;;17.00;6.93;;;;;;;;;;4971438;28;20066;-66
2022/05/14 05:15:19;;;;;;;16.10;6.47;;;;;;;;;;4971271;28;20058;-66
2022/05/14 05:17:50;;;;;;;13.57;6.88;;;;;;;;;;4959835;28;20054;-66
2022/05/14 05:20:20;;;;;;;14.73;6.97;;;;;;;;;;4971639;28;20054;-66
2022/05/14 05:22:51;;;;;;;13.63;6.05;;;;;;;;;;4960330;28;20120;-66
2022/05/14 05:25:22;;;;;;;13.10;6.28;;;;;;;;;;4952949;28;20065;-66
2022/05/14 05:27:53;;;;;;;11.77;5.70;;;;;;;;;;4990446;28;20647;-66
2022/05/14 05:30:23;;;;;;;17.52;6.35;;;;;;;;;;4990763;28;20057;-66
2022/05/14 05:32:54;;;;;;;12.27;6.00;;;;;;;;;;4991017;28;20050;-66
2022/05/14 05:35:26;;;;;;;13.63;6.03;;;;;;;;;;4958281;28;20050;-66
2022/05/14 05:37:57;;;;;;;13.88;6.60;;;;;;;;;;4977435;28;20058;-66
2022/05/14 05:40:27;;;;;;;14.23;6.35;;;;;;;;;;4990323;28;20050;-66
2022/05/14 05:42:59;;;;;;;13.02;5.97;;;;;;;;;;4989980;28;20047;-66
2022/05/14 05:45:31;;;;;;;15.25;6.45;;;;;;;;;;4979444;28;20054;-66
2022/05/14 05:48:02;;;;;;;14.70;6.75;;;;;;;;;;4955273;28;20543;-66
2022/05/14 05:50:33;;;;;;;13.43;5.78;;;;;;;;;;4954509;28;20058;-66
2022/05/14 05:53:05;;;;;;;12.30;5.95;;;;;;;;;;4954318;28;20589;-66
2022/05/14 05:58:24;;;;;;;14.00;6.45;;;;;;;;;;4986533;28;20051;-66
2022/05/14 06:00:55;;;;;;;11.32;5.57;;;;;;;;;;4953968;28;20697;-66
2022/05/14 06:03:26;;;;;;;11.93;5.65;;;;;;;;;;4989956;28;20058;-66
2022/05/14 06:05:56;;;;;;;13.52;5.65;;;;;;;;;;4989492;28;20067;-66
2022/05/14 06:08:27;;;;;;;12.75;5.50;;;;;;;;;;4957648;28;20437;-66
2022/05/14 06:10:57;;;;;;;12.35;5.55;;;;;;;;;;5005544;28;20395;-66
2022/05/14 06:13:29;;;;;;;10.13;5.53;;;;;;;;;;4957634;28;20057;-66
2022/05/14 06:16:00;;;;;;;13.70;6.07;;;;;;;;;;5002946;28;20045;-66
2022/05/14 06:18:30;;;;;;;11.73;6.22;;;;;;;;;;5022639;28;20053;-66
2022/05/14 06:21:01;;;;;;;14.65;6.15;;;;;;;;;;4976403;28;20063;-66
2022/05/14 06:23:32;;;;;;;12.15;5.95;;;;;;;;;;4973284;28;20070;-66
2022/05/14 06:26:03;;;;;;;13.70;5.72;;;;;;;;;;4951038;29;20419;-66
2022/05/14 06:28:34;;;;;;;16.45;6.43;;;;;;;;;;4934666;29;20079;-66
2022/05/14 06:31:05;;;;;;;11.40;5.93;;;;;;;;;;4963608;28;20792;-66
2022/05/14 06:33:35;;;;;;;11.00;6.10;;;;;;;;;;4986408;28;20050;-66
2022/05/14 06:36:07;;;;;;;11.38;5.28;;;;;;;;;;4938173;28;20606;-66
2022/05/14 06:38:37;;;;;;;12.00;5.70;;;;;;;;;;4985889;28;20050;-66
2022/05/14 06:41:11;;;;;;;11.60;5.13;;;;;;;;;;4954055;28;20062;-66
2022/05/14 06:43:42;;;;;;;13.23;5.93;;;;;;;;;;4977042;28;20058;-66
2022/05/14 06:46:13;;;;;;;12.77;5.70;;;;;;;;;;4960760;28;20050;-66
2022/05/14 06:48:44;;;;;;;13.65;6.15;;;;;;;;;;5000992;28;20425;-66
2022/05/14 06:51:22;;;;;;;12.35;5.32;;;;;;;;;;5008632;28;20489;-66
2022/05/14 06:53:56;;;;;;;13.45;6.07;;;;;;;;;;5008832;28;20046;-66
2022/05/14 06:56:28;;;;;;;13.00;5.43;;;;;;;;;;5008993;28;20442;-66
2022/05/14 06:59:00;;;;;;;11.25;5.03;;;;;;;;;;5046062;28;20059;-66
2022/05/14 07:01:31;;;;;;;12.93;5.95;;;;;;;;;;5052002;28;20447;-66
2022/05/14 07:06:54;;;;;;;17.33;5.38;;;;;;;;;;5028222;28;20060;-66
2022/05/14 07:09:27;;;;;;;12.07;5.63;;;;;;;;;;5028130;28;20062;-66
2022/05/14 07:12:03;;;;;;;10.70;5.20;;;;;;;;;;4972316;28;20553;-66
2022/05/14 07:14:35;;;;;;;12.55;5.22;;;;;;;;;;4969410;28;20609;-66
2022/05/14 07:17:05;;;;;;;11.23;5.40;;;;;;;;;;4969694;28;20058;-66
2022/05/14 07:19:37;;;;;;;14.10;5.40;;;;;;;;;;4973784;28;20059;-66
2022/05/14 07:22:14;;;;;;;13.90;6.15;;;;;;;;;;4973694;28;20189;-66
2022/05/14 07:24:47;;;;;;;12.00;5.72;;;;;;;;;;4973443;28;20062;-66
2022/05/14 07:27:18;;;;;;;10.38;5.50;;;;;;;;;;4925665;28;20058;-66
2022/05/14 07:29:48;;;;;;;11.20;5.35;;;;;;;;;;5007568;28;20062;-66
2022/05/14 07:32:20;;;;;;;11.27;5.55;;;;;;;;;;4963595;28;20072;-66
2022/05/14 07:34:51;;;;;;;12.40;5.75;;;;;;;;;;5012492;28;20057;-66
2022/05/14 07:37:30;;;;;;;12.65;4.97;;;;;;;;;;4963866;28;20054;-66
2022/05/14 07:40:06;;;;;;;;;;;;;;;;;;5012977;28;20557;-66
2022/05/14 07:42:45;;;;;;;14.63;5.30;;;;;;;;;;5012385;28;20031;-66
2022/05/14 07:45:21;;;;;;;12.27;6.18;;;;;;;;;;5028091;28;20563;-66
2022/05/14 07:47:55;;;;;;;8.93;4.93;;;;;;;;;;5031929;28;20050;-66
2022/05/14 07:50:26;;;;;;;9.40;4.75;;;;;;;;;;5084868;28;20056;-66
2022/05/14 07:52:57;;;;;;;14.10;5.72;;;;;;;;;;5067913;28;20160;-66
2022/05/14 07:55:29;;;;;;;10.85;5.50;;;;;;;;;;5071661;28;20044;-66
2022/05/14 07:58:04;;;;;;;10.45;4.75;;;;;;;;;;5051374;28;20064;-66
2022/05/14 08:00:35;;;;;;;10.88;4.97;;;;;;;;;;5051827;28;20056;-66
2022/05/14 08:03:06;;;;;;;13.65;5.72;;;;;;;;;;5051022;28;20056;-66
2022/05/14 08:05:37;;;;;;;13.32;5.65;;;;;;;;;;5011710;28;20545;-66
2022/05/14 08:08:08;;;;;;;12.63;5.00;;;;;;;;;;4995887;28;20053;-66
2022/05/14 08:10:39;;;;;;;11.38;5.10;;;;;;;;;;4991767;28;20058;-66
2022/05/14 08:13:16;;;;;;;9.95;5.15;;;;;;;;;;4991938;28;20062;-66
2022/05/14 08:15:49;;;;;;;13.82;6.28;;;;;;;;;;4992196;28;20450;-66
2022/05/14 08:18:19;;;;;;;11.95;5.45;;;;;;;;;;4991811;28;20059;-66
2022/05/14 08:20:51;;;;;;;11.27;5.07;;;;;;;;;;4944121;28;20061;-66
2022/05/14 08:26:11;;;;;;;10.30;4.93;;;;;;;;;;4959617;28;20203;-66
2022/05/14 08:28:42;;;;;;;11.70;5.32;;;;;;;;;;4991532;28;20478;-66
2022/05/14 08:31:12;;;;;;;11.52;5.07;;;;;;;;;;5020887;28;20057;-66
2022/05/14 08:33:43;;;;;;;9.20;4.95;;;;;;;;;;4998243;28;20057;-66
2022/05/14 08:36:14;;;;;;;10.90;5.28;;;;;;;;;;5017105;28;20062;-66
2022/05/14 08:38:45;;;;;;;14.15;5.25;;;;;;;;;;5011209;28;20042;-66
2022/05/14 08:41:15;;;;;;;12.27;4.97;;;;;;;;;;5039641;28;20509;-66
2022/05/14 08:43:54;;;;;;;10.85;4.97;;;;;;;;;;5048895;28;20044;-66
2022/05/14 08:46:27;;;;;;;12.55;5.20;;;;;;;;;;5055569;28;20045;-66
2022/05/14 08:49:06;;;;;;;9.15;4.70;;;;;;;;;;5065521;28;20063;-66
2022/05/14 08:51:41;;;;;;;9.68;5.10;;;;;;;;;;5093329;28;20487;-66
2022/05/14 08:54:12;;;;;;;13.18;4.88;;;;;;;;;;5093151;28;20048;-66
2022/05/14 08:56:52;;;;;;;13.18;4.63;;;;;;;;;;5074159;28;20048;-66
2022/05/14 08:59:45;;;;;;;16.23;4.88;;;;;;;;;;5070354;28;20048;-66
2022/05/14 09:02:25;;;;;;;10.00;5.05;;;;;;;;;;5029865;28;20069;-66
2022/05/14 09:05:03;;;;;;;12.05;5.03;;;;;;;;;;5010828;28;20514;-68
2022/05/14 09:07:36;;;;;;;11.63;4.88;;;;;;;;;;5011012;28;20054;-66
2022/05/14 09:10:19;;;;;;;9.85;5.13;;;;;;;;;;5010770;28;20414;-66
2022/05/14 09:13:01;;;;;;;12.63;4.93;;;;;;;;;;5010994;28;20057;-67
2022/05/14 09:15:33;;;;;;;11.07;4.70;;;;;;;;;;4961871;28;20058;-67
2022/05/14 09:18:27;;;;;;;9.07;4.20;;;;;;;;;;4978064;28;20457;-67
2022/05/14 09:21:02;;;;;;;9.50;5.32;;;;;;;;;;4948202;29;20059;-67
2022/05/14 09:23:39;;;;;;;12.63;5.97;;;;;;;;;;4932907;29;20055;-67
2022/05/14 09:26:35;;;;;;;12.60;5.30;;;;;;;;;;4932677;29;20059;-67
2022/05/14 09:29:27;;;;;;;12.25;5.70;;;;;;;;;;4901249;29;20088;-66
2022/05/14 09:31:59;;;;;;;15.27;5.85;;;;;;;;;;4955869;28;20055;-67
2022/05/14 09:34:35;;;;;;;12.48;5.32;;;;;;;;;;4910821;29;20463;-67
2022/05/14 09:37:16;;;;;;;12.88;5.68;;;;;;;;;;4941714;29;20086;-67
2022/05/14 09:40:10;;;;;;;10.50;5.25;;;;;;;;;;4970614;28;20043;-67
2022/05/14 09:42:51;;;;;;;12.75;5.72;;;;;;;;;;4958717;28;20540;-67
2022/05/14 09:45:33;;;;;;;10.25;4.88;;;;;;;;;;5008586;28;20050;-67
2022/05/14 09:48:23;;;;;;;12.85;5.93;;;;;;;;;;4957826;28;20058;-67
2022/05/14 09:51:00;;;;;;;12.43;5.47;;;;;;;;;;5009351;28;20064;-67
2022/05/14 09:53:40;;;;;;;11.30;5.30;;;;;;;;;;4993400;28;20050;-65
2022/05/14 09:56:10;;;;;;;14.45;5.50;;;;;;;;;;5009782;28;20069;-67
2022/05/14 09:58:48;;;;;;;11.20;5.43;;;;;;;;;;5056543;28;20165;-67
2022/05/14 10:01:59;;;;;;;13.65;5.65;;;;;;;;;;5068673;28;20067;-66
2022/05/14 10:04:33;;;;;;;14.55;5.55;;;;;;;;;;5002816;28;20055;-67
2022/05/14 10:07:44;;;;;;;11.82;5.55;;;;;;;;;;5069165;28;20057;-66
2022/05/14 10:10:33;;;;;;;11.02;4.65;;;;;;;;;;5009767;28;20429;-67
2022/05/14 10:13:14;;;;;;;9.82;5.15;;;;;;;;;;5009480;28;20061;-66
2022/05/14 10:15:47;;;;;;;10.85;4.60;;;;;;;;;;5005565;28;20049;-66
2022/05/14 10:18:55;;;;;;;11.35;6.35;;;;;;;;;;5002868;28;20108;-67
2022/05/14 10:22:09;;;;;;;10.55;5.03;;;;;;;;;;5048956;28;20049;-66
2022/05/14 10:27:56;;;;;;;12.10;5.70;;;;;;;;;;4931213;29;20440;-66
2022/05/14 10:30:54;;;;;;;11.07;5.60;;;;;;;;;;4900244;29;20059;-67
2022/05/14 10:33:29;;;;;;;14.30;5.45;;;;;;;;;;4931854;29;20409;-67
2022/05/14 10:36:06;;;;;;;9.50;5.70;;;;;;;;;;4900135;29;20054;-66
2022/05/14 10:38:53;;;;;;;9.57;5.25;;;;;;;;;;4918765;29;20061;-66
2022/05/14 10:41:37;;;;;;;11.15;5.55;;;;;;;;;;4893714;29;20593;-67
2022/05/14 10:44:18;;;;;;;10.55;5.35;;;;;;;;;;4893613;29;20052;-67
2022/05/14 10:46:50;;;;;;;13.40;5.35;;;;;;;;;;4893548;29;20060;-67
2022/05/14 10:49:34;;;;;;;10.70;5.22;;;;;;;;;;4919335;29;20076;-66
2022/05/14 10:52:12;;;;;;;12.88;6.43;;;;;;;;;;4884059;29;20075;-66
2022/05/14 10:54:47;;;;;;;12.13;5.57;;;;;;;;;;4969476;28;20058;-66
2022/05/14 10:57:21;;;;;;;11.05;5.25;;;;;;;;;;4931242;29;20208;-67
2022/05/14 11:00:36;;;;;;;12.35;5.40;;;;;;;;;;4947099;29;20056;-67
2022/05/14 11:03:12;;;;;;;;;;;;;;;;;;5002271;28;20061;-67
2022/05/14 11:06:01;;;;;;;10.10;5.40;;;;;;;;;;4963091;28;19922;-67
2022/05/14 11:08:46;;;;;;;12.77;5.82;;;;;;;;;;4956870;28;20061;-67
2022/05/14 11:11:25;;;;;;;12.95;5.53;;;;;;;;;;4989131;28;20050;-67
2022/05/14 11:13:57;;;;;;;11.23;5.18;;;;;;;;;;4989007;28;20618;-66
2022/05/14 11:16:46;;;;;;;11.48;5.28;;;;;;;;;;4989057;28;20054;-67
2022/05/14 11:19:26;;;;;;;10.70;5.57;;;;;;;;;;4989080;28;20503;-67
2022/05/14 11:21:58;;;;;;;11.60;6.03;;;;;;;;;;4988768;28;20054;-67
2022/05/14 11:24:39;;;;;;;10.02;5.35;;;;;;;;;;4989123;28;20054;-67
2022/05/14 11:27:11;;;;;;;12.65;5.45;;;;;;;;;;4932672;29;20055;-67
2022/05/14 11:29:56;;;;;;;11.45;5.15;;;;;;;;;;4913781;29;20413;-67
2022/05/14 11:32:37;;;;;;;11.63;5.47;;;;;;;;;;4910170;29;20488;-67
2022/05/14 11:35:08;;;;;;;14.70;6.22;;;;;;;;;;4896885;29;20082;-67
2022/05/14 11:37:43;;;;;;;12.55;5.85;;;;;;;;;;4894314;29;20156;-64
2022/05/14 11:40:20;;;;;;;16.95;7.57;;;;;;;;;;4936658;29;20067;-67
2022/05/14 11:43:08;;;;;;;18.35;9.00;;;;;;;;;;4944399;28;20058;-67
2022/05/14 11:45:51;;;;;;;11.98;6.57;;;;;;;;;;4968783;28;20066;-66
2022/05/14 11:48:28;;;;;;;13.07;7.00;;;;;;;;;;4953314;28;20063;-67
2022/05/14 11:51:25;;;;;;;14.60;7.38;;;;;;;;;;4949847;29;20059;-67
2022/05/14 11:54:17;;;;;;;14.02;6.75;;;;;;;;;;4960389;28;20054;-67
2022/05/14 11:57:11;;;;;;;17.02;8.50;;;;;;;;;;4966014;28;20062;-67
2022/05/14 11:59:41;;;;;;;22.60;9.88;;;;;;;;;;4968935;28;20055;-67
2022/05/14 12:02:44;;;;;;;18.83;9.70;;;;;;;;;;4950993;28;20058;-67
2022/05/14 12:05:24;;;;;;;14.35;7.93;;;;;;;;;;4907133;29;20056;-67
2022/05/14 12:08:03;;;;;;;16.27;9.23;;;;;;;;;;4904658;29;20590;-66
2022/05/14 12:10:58;;;;;;;22.23;11.30;;;;;;;;;;4936832;29;20058;-67
2022/05/14 12:13:38;;;;;;;23.63;11.55;;;;;;;;;;4921987;29;20063;-67
2022/05/14 12:16:09;;;;;;;20.45;10.45;;;;;;;;;;4952924;29;20148;-67
2022/05/14 12:18:42;;;;;;;18.67;9.63;;;;;;;;;;4937029;29;20079;-67
2022/05/14 12:21:16;;;;;;;18.83;9.95;;;;;;;;;;4953148;29;20070;-67
2022/05/14 12:23:49;;;;;;;32.25;15.50;;;;;;;;;;4952606;29;20636;-67
2022/05/14 12:26:21;;;;;;;;;;;;;;;;;;4906203;29;20067;-67
2022/05/14 12:28:56;;;;;;;27.63;15.52;;;;;;;;;;4944514;28;19998;-67
2022/05/14 12:34:37;;;;;;;22.88;13.30;;;;;;;;;;4978316;28;20065;-67
2022/05/14 12:37:19;;;;;;;19.27;11.30;;;;;;;;;;5011039;28;20061;-67
2022/05/14 12:39:52;;;;;;;17.67;9.70;;;;;;;;;;5011177;28;20393;-67
2022/05/14 12:42:33;;;;;;;19.10;9.32;;;;;;;;;;5028505;28;20059;-69
2022/05/14 12:45:06;;;;;;;25.95;14.02;;;;;;;;;;5090629;28;20407;-66
2022/05/14 12:47:40;;;;;;;50.33;21.60;;;;;;;;;;5090530;28;20431;-67
2022/05/14 12:50:25;;;;;;;40.08;16.63;;;;;;;;;;5090709;28;20040;-68
2022/05/14 12:53:00;;;;;;;26.77;14.13;;;;;;;;;;5058657;28;20060;-67
2022/05/14 12:55:36;;;;;;;36.28;17.42;;;;;;;;;;5058169;28;20407;-67
2022/05/14 12:58:07;;;;;;;48.20;20.27;;;;;;;;;;5090182;28;20066;-67
2022/05/14 13:00:39;;;;;;;36.90;19.38;;;;;;;;;;5040505;28;20634;-67
2022/05/14 13:03:31;;;;;;;44.10;21.15;;;;;;;;;;5073984;28;20059;-68
2022/05/14 13:06:13;;;;;;;;;;;;;;;;;;5074377;28;20060;-65
2022/05/14 13:08:48;;;;;;;35.38;17.17;;;;;;;;;;5029456;28;19928;-65
2022/05/14 13:11:28;;;;;;;30.42;16.98;;;;;;;;;;4981181;28;20053;-66
2022/05/14 13:14:15;;;;;;;39.45;15.93;;;;;;;;;;5030222;28;20529;-66
2022/05/14 13:16:59;;;;;;;39.45;18.75;;;;;;;;;;4975920;28;20053;-66
2022/05/14 13:19:48;;;;;;;28.67;14.48;;;;;;;;;;5010404;28;20057;-66
2022/05/14 13:22:40;;;;;;;25.65;12.73;;;;;;;;;;4962008;28;20056;-66
2022/05/14 13:25:31;;;;;;;25.42;13.27;;;;;;;;;;5010141;28;20049;-65
2022/05/14 13:28:13;;;;;;;23.08;12.85;;;;;;;;;;5011516;28;20057;-66
2022/05/14 13:30:46;;;;;;;25.52;11.90;;;;;;;;;;5033304;28;20057;-66
2022/05/14 13:33:38;;;;;;;18.75;9.57;;;;;;;;;;5025468;28;20521;-65
2022/05/14 13:39:11;;;;;;;17.88;9.30;;;;;;;;;;4977325;28;20058;-67
2022/05/14 13:41:45;;;;;;;14.40;7.30;;;;;;;;;;5023910;28;20407;-66
2022/05/14 13:44:23;;;;;;;16.40;9.40;;;;;;;;;;5027680;28;20445;-65
2022/05/14 13:46:58;;;;;;;16.98;9.00;;;;;;;;;;5060469;28;20040;-66
2022/05/14 13:49:35;;;;;;;10.85;6.18;;;;;;;;;;5079433;28;20052;-66
2022/05/14 13:52:05;;;;;;;11.25;7.35;;;;;;;;;;5059400;28;20508;-66
2022/05/14 13:54:39;;;;;;;10.65;6.03;;;;;;;;;;5072973;28;20060;-66
2022/05/14 13:57:13;;;;;;;11.40;6.07;;;;;;;;;;5082126;28;20056;-65
2022/05/14 13:59:45;;;;;;;14.90;8.90;;;;;;;;;;5081005;28;20582;-66
2022/05/14 14:02:27;;;;;;;15.73;9.82;;;;;;;;;;5073048;28;20663;-65
2022/05/14 14:05:02;;;;;;;17.40;9.52;;;;;;;;;;5054392;28;20416;-65
2022/05/14 14:07:36;;;;;;;13.15;7.43;;;;;;;;;;5070450;28;20520;-64
2022/05/14 14:10:33;;;;;;;16.00;8.13;;;;;;;;;;5092258;27;20113;-64
2022/05/14 14:13:07;;;;;;;14.98;8.10;;;;;;;;;;5035930;28;20057;-64
2022/05/14 14:15:38;;;;;;;17.10;8.55;;;;;;;;;;5033215;28;20055;-64
2022/05/14 14:18:09;;;;;;;15.05;8.38;;;;;;;;;;5023834;28;20050;-64
2022/05/14 14:20:44;;;;;;;13.40;7.95;;;;;;;;;;5041545;28;20523;-64
2022/05/14 14:23:19;;;;;;;11.80;6.85;;;;;;;;;;4998916;28;20456;-66
2022/05/14 14:25:50;;;;;;;11.75;6.90;;;;;;;;;;5009007;28;20097;-66
2022/05/14 14:28:21;;;;;;;11.25;6.38;;;;;;;;;;5014470;28;20052;-65
2022/05/14 14:30:52;;;;;;;12.38;6.57;;;;;;;;;;5023316;28;20060;-65
2022/05/14 14:33:24;;;;;;;13.35;6.68;;;;;;;;;;5011781;28;20528;-65
2022/05/14 14:35:54;;;;;;;12.52;6.68;;;;;;;;;;5022286;28;20053;-65
2022/05/14 14:38:25;;;;;;;14.35;6.63;;;;;;;;;;5008537;28;20098;-65
2022/05/14 14:40:56;;;;;;;14.13;7.05;;;;;;;;;;5003577;28;20068;-65
2022/05/14 14:43:27;;;;;;;11.65;5.88;;;;;;;;;;4976579;28;20066;-65
2022/05/14 14:45:58;;;;;;;11.80;6.35;;;;;;;;;;4992694;28;20065;-65
2022/05/14 14:48:32;;;;;;;12.23;6.13;;;;;;;;;;4945449;28;20450;-65
2022/05/14 14:51:03;;;;;;;9.63;5.65;;;;;;;;;;5026553;28;20058;-65
2022/05/14 14:53:35;;;;;;;10.80;6.25;;;;;;;;;;5031129;28;20053;-65
2022/05/14 14:56:08;;;;;;;9.07;5.35;;;;;;;;;;4979410;28;20046;-64
2022/05/14 14:58:45;;;;;;;9.75;5.50;;;;;;;;;;4997287;28;20064;-66
2022/05/14 15:01:23;;;;;;;11.02;5.47;;;;;;;;;;5048184;28;20563;-65
2022/05/14 15:04:06;;;;;;;11.38;5.60;;;;;;;;;;5011137;28;20042;-67
2022/05/14 15:06:37;;;;;;;12.38;6.07;;;;;;;;;;5028194;28;20057;-70
2022/05/14 15:09:07;;;;;;;11.82;6.75;;;;;;;;;;5028128;28;20064;-68
2022/05/14 15:11:39;;;;;;;11.48;5.88;;;;;;;;;;4979239;28;20696;-68
2022/05/14 15:14:16;;;;;;;12.20;5.63;;;;;;;;;;5010971;28;20517;-70
2022/05/14 15:16:46;;;;;;;9.82;5.55;;;;;;;;;;5008062;28;20065;-70
2022/05/14 15:19:17;;;;;;;13.43;5.78;;;;;;;;;;4991466;28;20694;-68
2022/05/14 15:21:48;;;;;;;14.88;5.90;;;;;;;;;;5001199;28;20089;-66
2022/05/14 15:24:19;;;;;;;13.10;6.82;;;;;;;;;;5004552;28;20074;-67
2022/05/14 15:26:49;;;;;;;13.52;6.05;;;;;;;;;;4991035;28;20054;-70
2022/05/14 15:29:20;;;;;;;12.35;6.25;;;;;;;;;;5039948;28;20053;-70
2022/05/14 15:32:05;;;;;;;10.88;6.32;;;;;;;;;;5048062;28;20045;-69
2022/05/14 15:34:36;;;;;;;17.60;8.90;;;;;;;;;;5014401;28;20065;-69
2022/05/14 15:37:08;;;;;;;13.32;7.43;;;;;;;;;;5013992;28;20132;-69
2022/05/14 15:39:39;;;;;;;16.23;8.48;;;;;;;;;;5050567;28;20412;-70
2022/05/14 15:42:14;;;;;;;17.20;8.85;;;;;;;;;;5097204;28;20066;-67
2022/05/14 15:44:50;;;;;;;14.75;7.68;;;;;;;;;;5078397;28;20055;-66
2022/05/14 15:47:24;;;;;;;16.17;6.70;;;;;;;;;;5112847;28;20056;-67
2022/05/14 15:49:59;;;;;;;17.15;7.90;;;;;;;;;;5112331;28;20075;-69
2022/05/14 15:52:38;;;;;;;17.95;9.68;;;;;;;;;;5111846;28;20411;-68
2022/05/14 15:55:13;;;;;;;13.80;7.57;;;;;;;;;;5038015;28;20554;-68
2022/05/14 15:57:44;;;;;;;15.45;7.70;;;;;;;;;;5050853;28;20055;-68
2022/05/14 16:00:17;;;;;;;14.80;7.50;;;;;;;;;;5073152;28;20576;-69